createdAt,value
2022-11-02T00:00:14.712Z,14.10
2022-11-02T00:02:41.936Z,14.00
2022-11-02T00:05:13.717Z,14.00
2022-11-02T00:07:41.975Z,14.00
2022-11-02T00:10:10.318Z,13.90
2022-11-02T00:12:37.599Z,13.90
2022-11-02T00:15:05.651Z,13.90
2022-11-02T00:17:34.303Z,14.00
2022-11-02T00:20:04.047Z,14.00
2022-11-02T00:22:33.493Z,14.10
2022-11-02T00:25:03.973Z,14.00
2022-11-02T00:27:32.125Z,14.00
2022-11-02T00:30:00.658Z,14.00
2022-11-02T00:32:28.000Z,14.00
2022-11-02T00:34:55.210Z,13.90
2022-11-02T00:37:22.499Z,13.90
2022-11-02T00:39:49.756Z,14.00
2022-11-02T00:42:16.958Z,14.00
2022-11-02T00:44:44.224Z,14.00
2022-11-02T00:47:12.437Z,14.00
2022-11-02T00:49:40.080Z,14.00
2022-11-02T00:52:07.768Z,13.90
2022-11-02T00:54:35.414Z,13.80
2022-11-02T00:57:02.931Z,13.70
2022-11-02T00:59:30.316Z,13.80
2022-11-02T01:01:58.004Z,13.70
2022-11-02T01:04:25.506Z,13.70
2022-11-02T01:06:52.895Z,13.60
2022-11-02T01:09:21.662Z,13.60
2022-11-02T01:12:05.642Z,13.70
2022-11-02T01:14:38.837Z,13.70
2022-11-02T01:17:08.819Z,13.70
2022-11-02T01:19:37.357Z,13.70
2022-11-02T01:22:08.522Z,13.70
2022-11-02T01:24:37.169Z,13.70
2022-11-02T01:28:15.590Z,13.70
2022-11-02T01:30:43.068Z,13.80
2022-11-02T01:33:12.054Z,13.70
2022-11-02T01:35:39.291Z,13.80
2022-11-02T01:38:06.805Z,13.70
2022-11-02T01:40:39.588Z,13.60
2022-11-02T01:43:23.660Z,13.60
2022-11-02T01:45:58.313Z,13.50
2022-11-02T01:48:33.161Z,13.50
2022-11-02T01:51:04.239Z,13.50
2022-11-02T01:53:33.708Z,13.50
2022-11-02T01:56:01.849Z,13.50
2022-11-02T01:58:29.372Z,13.40
2022-11-02T02:00:56.677Z,13.40
2022-11-02T02:03:24.408Z,13.50
2022-11-02T02:05:57.943Z,13.50
2022-11-02T02:08:26.573Z,13.50
2022-11-02T02:10:58.079Z,13.50
2022-11-02T02:13:28.105Z,13.50
2022-11-02T02:16:18.779Z,13.50
2022-11-02T02:18:57.585Z,13.50
2022-11-02T02:21:58.534Z,13.50
2022-11-02T02:24:36.502Z,13.50
2022-11-02T02:27:27.873Z,13.50
2022-11-02T02:30:06.810Z,13.50
2022-11-02T02:32:36.652Z,13.50
2022-11-02T02:35:16.672Z,13.40
2022-11-02T02:37:55.016Z,13.40
2022-11-02T02:40:46.800Z,13.30
2022-11-02T02:43:26.190Z,13.30
2022-11-02T02:46:01.303Z,13.40
2022-11-02T02:48:30.039Z,13.40
2022-11-02T02:51:09.797Z,13.40
2022-11-02T02:53:46.336Z,13.40
2022-11-02T02:56:19.825Z,13.40
2022-11-02T02:59:11.030Z,13.30
2022-11-02T03:01:42.572Z,13.40
2022-11-02T03:04:12.745Z,13.30
2022-11-02T03:06:42.431Z,13.30
2022-11-02T03:09:19.148Z,13.30
2022-11-02T03:12:01.193Z,13.30
2022-11-02T03:14:46.985Z,13.20
2022-11-02T03:17:24.104Z,13.20
2022-11-02T03:20:03.131Z,13.10
2022-11-02T03:22:38.920Z,13.00
2022-11-02T03:25:24.591Z,13.00
2022-11-02T03:28:03.634Z,12.90
2022-11-02T03:30:38.755Z,13.00
2022-11-02T03:33:16.573Z,13.00
2022-11-02T03:35:55.372Z,13.10
2022-11-02T03:38:32.692Z,13.10
2022-11-02T03:41:03.175Z,13.10
2022-11-02T03:43:34.997Z,13.20
2022-11-02T03:46:05.811Z,13.10
2022-11-02T03:48:38.133Z,13.10
2022-11-02T03:51:11.312Z,13.10
2022-11-02T03:53:45.951Z,13.10
2022-11-02T03:56:37.802Z,13.00
2022-11-02T03:59:05.083Z,13.00
2022-11-02T04:01:40.282Z,13.10
2022-11-02T04:04:07.922Z,13.00
2022-11-02T04:06:37.205Z,13.10
2022-11-02T04:09:05.501Z,13.10
2022-11-02T04:11:51.726Z,13.00
2022-11-02T04:14:37.827Z,13.00
2022-11-02T04:20:06.088Z,13.00
2022-11-02T04:22:52.130Z,12.90
2022-11-02T04:25:20.249Z,12.70
2022-11-02T04:28:08.581Z,12.70
2022-11-02T04:30:41.352Z,12.60
2022-11-02T04:33:27.425Z,12.60
2022-11-02T04:36:03.185Z,12.60
2022-11-02T04:38:40.764Z,12.70
2022-11-02T04:41:36.949Z,12.60
2022-11-02T04:44:07.865Z,12.60
2022-11-02T04:46:37.523Z,12.50
2022-11-02T04:49:05.617Z,12.50
2022-11-02T04:51:35.457Z,12.50
2022-11-02T04:54:03.981Z,12.40
2022-11-02T04:56:32.601Z,12.30
2022-11-02T04:59:00.984Z,12.40
2022-11-02T05:01:31.349Z,12.30
2022-11-02T05:04:00.815Z,12.30
2022-11-02T05:06:31.022Z,12.30
2022-11-02T05:08:58.548Z,12.30
2022-11-02T05:11:26.531Z,12.30
2022-11-02T05:13:55.140Z,12.40
2022-11-02T05:16:22.407Z,12.40
2022-11-02T05:18:52.558Z,12.40
2022-11-02T05:21:20.728Z,12.40
2022-11-02T05:23:49.651Z,12.40
2022-11-02T05:26:17.211Z,12.30
2022-11-02T05:28:48.034Z,12.40
2022-11-02T05:31:15.381Z,12.40
2022-11-02T05:33:46.900Z,12.30
2022-11-02T05:36:18.602Z,12.30
2022-11-02T05:38:51.991Z,12.10
2022-11-02T05:41:20.327Z,12.10
2022-11-02T05:43:48.996Z,12.10
2022-11-02T05:46:18.835Z,12.10
2022-11-02T05:48:46.252Z,12.20
2022-11-02T05:51:13.598Z,12.30
2022-11-02T05:53:40.975Z,12.30
2022-11-02T05:56:11.065Z,12.20
2022-11-02T05:58:38.375Z,12.30
2022-11-02T06:01:07.507Z,12.30
2022-11-02T06:03:36.097Z,12.40
2022-11-02T06:06:09.742Z,12.30
2022-11-02T06:08:38.686Z,12.20
2022-11-02T06:11:11.180Z,12.20
2022-11-02T06:13:39.104Z,12.20
2022-11-02T06:16:10.939Z,12.20
2022-11-02T06:18:39.349Z,12.30
2022-11-02T06:21:07.162Z,12.30
2022-11-02T06:23:34.700Z,12.30
2022-11-02T06:26:02.706Z,12.40
2022-11-02T06:28:31.149Z,12.50
2022-11-02T06:30:58.717Z,12.60
2022-11-02T06:33:26.177Z,12.60
2022-11-02T06:35:54.596Z,12.70
2022-11-02T06:38:22.379Z,12.70
2022-11-02T06:41:04.175Z,12.70
2022-11-02T06:43:33.239Z,12.70
2022-11-02T06:46:00.482Z,12.70
2022-11-02T06:48:33.340Z,12.60
2022-11-02T06:51:03.820Z,12.60
2022-11-02T06:53:31.371Z,12.60
2022-11-02T06:55:59.796Z,12.70
2022-11-02T06:58:27.204Z,12.70
2022-11-02T07:01:00.216Z,12.70
2022-11-02T07:03:28.193Z,12.70
2022-11-02T07:05:55.441Z,12.80
2022-11-02T07:08:23.251Z,12.80
2022-11-02T07:10:50.656Z,12.80
2022-11-02T07:13:18.204Z,12.80
2022-11-02T07:15:45.500Z,12.80
2022-11-02T07:18:13.330Z,12.80
2022-11-02T07:20:40.700Z,12.70
2022-11-02T07:23:09.570Z,12.70
2022-11-02T07:25:37.129Z,12.70
2022-11-02T07:28:04.734Z,12.80
2022-11-02T07:30:34.809Z,12.90
2022-11-02T07:33:02.558Z,13.00
2022-11-02T07:35:30.359Z,13.10
2022-11-02T07:38:02.602Z,13.20
2022-11-02T07:40:32.790Z,13.30
2022-11-02T07:43:00.408Z,13.50
2022-11-02T07:45:49.559Z,13.60
2022-11-02T07:48:17.365Z,13.80
2022-11-02T07:50:44.615Z,14.00
2022-11-02T07:53:11.845Z,14.40
2022-11-02T07:55:39.434Z,14.90
2022-11-02T07:58:10.312Z,15.40
2022-11-02T08:00:39.286Z,15.90
2022-11-02T08:03:08.211Z,15.90
2022-11-02T08:05:38.141Z,15.80
2022-11-02T08:08:14.506Z,15.60
2022-11-02T08:10:42.652Z,15.30
2022-11-02T08:13:12.887Z,15.20
2022-11-02T08:15:40.500Z,15.40
2022-11-02T08:18:14.205Z,15.70
2022-11-02T08:20:41.851Z,16.10
2022-11-02T08:23:10.980Z,16.30
2022-11-02T08:25:39.289Z,16.70
2022-11-02T08:28:09.075Z,17.00
2022-11-02T08:30:38.042Z,17.50
2022-11-02T08:33:13.080Z,17.70
2022-11-02T08:35:40.782Z,17.80
2022-11-02T08:38:09.133Z,18.00
2022-11-02T08:40:37.315Z,18.30
2022-11-02T08:43:07.024Z,18.30
2022-11-02T08:46:08.321Z,18.30
2022-11-02T08:48:23.430Z,18.50
2022-11-02T08:50:50.665Z,18.60
2022-11-02T08:53:18.220Z,18.80
2022-11-02T08:55:45.434Z,19.00
2022-11-02T08:58:12.728Z,19.20
2022-11-02T09:00:39.947Z,19.40
2022-11-02T09:03:12.449Z,19.50
2022-11-02T09:05:42.623Z,19.40
2022-11-02T09:08:16.704Z,19.50
2022-11-02T09:10:45.177Z,19.40
2022-11-02T09:13:14.281Z,19.20
2022-11-02T09:15:41.922Z,19.20
2022-11-02T09:18:09.966Z,19.20
2022-11-02T09:20:37.579Z,19.20
2022-11-02T09:23:04.840Z,19.20
2022-11-02T09:25:32.453Z,19.20
2022-11-02T09:27:59.736Z,19.10
2022-11-02T09:30:28.753Z,18.80
2022-11-02T09:33:01.903Z,18.70
2022-11-02T09:35:31.581Z,18.40
2022-11-02T09:37:59.081Z,18.20
2022-11-02T09:40:30.057Z,18.00
2022-11-02T09:43:13.833Z,17.80
2022-11-02T09:45:58.101Z,17.80
2022-11-02T09:48:48.236Z,17.80
2022-11-02T09:51:20.711Z,17.70
2022-11-02T09:54:16.187Z,17.70
2022-11-02T09:56:45.720Z,17.70
2022-11-02T09:59:21.796Z,17.70
2022-11-02T10:01:50.074Z,17.80
2022-11-02T10:04:44.965Z,17.80
2022-11-02T10:07:32.958Z,17.70
2022-11-02T10:10:12.013Z,17.70
2022-11-02T10:12:59.455Z,17.70
2022-11-02T10:15:56.812Z,17.70
2022-11-02T10:18:30.048Z,17.80
2022-11-02T10:21:02.330Z,17.70
2022-11-02T10:23:34.565Z,17.70
2022-11-02T10:26:03.398Z,17.70
2022-11-02T10:28:38.272Z,17.70
2022-11-02T10:31:36.738Z,17.70
2022-11-02T10:34:23.923Z,17.70
2022-11-02T10:37:22.533Z,17.60
2022-11-02T10:40:14.057Z,17.50
2022-11-02T10:42:47.076Z,17.30
2022-11-02T10:45:39.214Z,17.20
2022-11-02T10:48:18.173Z,17.20
2022-11-02T10:51:12.112Z,17.20
2022-11-02T10:53:51.351Z,17.40
2022-11-02T10:56:31.962Z,17.50
2022-11-02T10:59:02.193Z,17.60
2022-11-02T11:01:31.741Z,17.70
2022-11-02T11:04:04.815Z,17.60
2022-11-02T11:06:36.315Z,17.50
2022-11-02T11:09:20.844Z,17.40
2022-11-02T11:12:22.132Z,17.40
2022-11-02T11:20:37.091Z,17.60
2022-11-02T11:23:31.006Z,17.70
2022-11-02T11:26:03.860Z,17.80
2022-11-02T11:28:32.639Z,17.80
2022-11-02T11:31:05.319Z,17.80
2022-11-02T11:33:40.959Z,17.70
2022-11-02T11:36:10.432Z,17.70
2022-11-02T11:38:46.100Z,17.80
2022-11-02T11:41:13.577Z,17.80
2022-11-02T11:43:41.304Z,17.80
2022-11-02T11:46:11.582Z,17.80
2022-11-02T11:48:54.398Z,17.80
2022-11-02T11:51:42.314Z,17.80
2022-11-02T11:54:31.907Z,17.80
2022-11-02T11:57:23.661Z,17.80
2022-11-02T11:59:52.891Z,17.80
2022-11-02T12:02:24.919Z,17.90
2022-11-02T12:04:58.000Z,17.90
2022-11-02T12:07:53.475Z,17.90
2022-11-02T12:10:48.174Z,17.90
2022-11-02T12:13:52.002Z,17.90
2022-11-02T12:16:40.439Z,17.90
2022-11-02T12:19:21.116Z,17.80
2022-11-02T12:22:23.908Z,17.70
2022-11-02T12:25:11.497Z,17.70
2022-11-02T12:28:06.624Z,17.80
2022-11-02T12:30:33.814Z,17.80
2022-11-02T12:33:20.006Z,17.70
2022-11-02T12:35:59.373Z,17.70
2022-11-02T12:39:02.181Z,17.70
2022-11-02T12:41:48.374Z,17.70
2022-11-02T12:44:38.814Z,17.70
2022-11-02T12:47:12.257Z,17.70
2022-11-02T12:49:46.994Z,17.80
2022-11-02T12:52:14.305Z,17.70
2022-11-02T12:54:41.900Z,17.60
2022-11-02T12:57:15.061Z,17.70
2022-11-02T12:59:44.585Z,17.70
2022-11-02T13:02:18.240Z,17.60
2022-11-02T13:04:58.158Z,17.60
2022-11-02T13:07:46.859Z,17.70
2022-11-02T13:10:30.936Z,17.70
2022-11-02T13:13:01.701Z,17.70
2022-11-02T13:15:31.885Z,17.70
2022-11-02T13:18:12.991Z,17.70
2022-11-02T13:20:50.829Z,17.60
2022-11-02T13:23:43.367Z,17.70
2022-11-02T13:26:25.813Z,17.60
2022-11-02T13:28:57.677Z,17.50
2022-11-02T13:32:09.969Z,17.50
2022-11-02T13:34:43.403Z,17.40
2022-11-02T13:37:26.219Z,17.40
2022-11-02T13:40:00.417Z,17.30
2022-11-02T13:43:05.045Z,17.30
2022-11-02T13:45:53.862Z,17.30
2022-11-02T13:48:30.150Z,17.30
2022-11-02T13:51:03.847Z,17.20
2022-11-02T13:53:36.620Z,17.20
2022-11-02T13:56:09.319Z,17.20
2022-11-02T13:58:56.067Z,17.10
2022-11-02T14:01:25.648Z,17.10
2022-11-02T14:04:01.687Z,17.00
2022-11-02T14:06:31.995Z,17.00
2022-11-02T14:09:07.117Z,17.00
2022-11-02T14:11:40.540Z,16.80
2022-11-02T14:14:18.114Z,16.80
2022-11-02T14:16:47.015Z,16.80
2022-11-02T14:19:28.880Z,16.70
2022-11-02T14:21:58.842Z,16.60
2022-11-02T14:24:36.188Z,16.60
2022-11-02T14:27:12.553Z,16.50
2022-11-02T14:29:44.863Z,16.50
2022-11-02T14:32:21.499Z,16.50
2022-11-02T14:35:28.953Z,16.50
2022-11-02T14:37:59.197Z,16.50
2022-11-02T14:40:51.101Z,16.40
2022-11-02T14:43:39.459Z,16.40
2022-11-02T14:46:30.361Z,16.40
2022-11-02T14:48:59.845Z,16.40
2022-11-02T14:51:34.138Z,16.40
2022-11-02T14:54:03.009Z,16.40
2022-11-02T14:56:51.573Z,16.40
2022-11-02T14:59:30.778Z,16.40
2022-11-02T15:02:01.726Z,16.40
2022-11-02T15:04:32.217Z,16.50
2022-11-02T15:07:01.492Z,16.50
2022-11-02T15:09:52.029Z,16.50
2022-11-02T15:12:38.902Z,16.50
2022-11-02T15:15:28.264Z,16.50
2022-11-02T15:18:13.253Z,16.40
2022-11-02T15:20:45.909Z,16.40
2022-11-02T15:23:29.876Z,16.40
2022-11-02T15:25:58.803Z,16.40
2022-11-02T15:28:29.728Z,16.50
2022-11-02T15:31:00.564Z,16.40
2022-11-02T15:33:44.493Z,16.40
2022-11-02T15:36:35.437Z,16.40
2022-11-02T15:39:08.876Z,16.40
2022-11-02T15:41:44.945Z,16.40
2022-11-02T15:44:24.155Z,16.50
2022-11-02T15:46:59.474Z,16.50
2022-11-02T15:49:56.126Z,16.40
2022-11-02T15:52:42.842Z,16.30
2022-11-02T15:55:24.229Z,16.30
2022-11-02T15:57:57.357Z,16.30
2022-11-02T16:00:30.239Z,16.30
2022-11-02T16:03:06.394Z,16.30
2022-11-02T16:05:41.583Z,16.30
2022-11-02T16:08:26.024Z,16.20
2022-11-02T16:11:04.708Z,16.20
2022-11-02T16:13:48.874Z,16.10
2022-11-02T16:16:22.761Z,16.10
2022-11-02T16:18:52.770Z,16.10
2022-11-02T16:21:21.815Z,16.10
2022-11-02T16:23:52.181Z,16.10
2022-11-02T16:26:25.771Z,16.10
2022-11-02T16:28:55.652Z,16.10
2022-11-02T16:31:31.442Z,16.10
2022-11-02T16:34:05.260Z,16.00
2022-11-02T16:36:37.756Z,16.00
2022-11-02T16:39:25.446Z,16.00
2022-11-02T16:41:57.182Z,16.00
2022-11-02T16:44:33.534Z,16.00
2022-11-02T16:47:15.927Z,16.00
2022-11-02T16:49:52.475Z,16.00
2022-11-02T16:52:21.472Z,15.90
2022-11-02T16:54:48.844Z,16.00
2022-11-02T16:57:18.648Z,15.90
2022-11-02T16:59:56.459Z,15.90
2022-11-02T17:02:34.984Z,15.80
2022-11-02T17:05:06.374Z,15.80
2022-11-02T17:07:36.812Z,15.80
2022-11-02T17:10:06.750Z,15.80
2022-11-02T17:12:37.456Z,15.80
2022-11-02T17:15:14.700Z,15.80
2022-11-02T17:17:41.927Z,15.80
2022-11-02T17:20:14.521Z,15.70
2022-11-02T17:22:57.672Z,15.60
2022-11-02T17:25:32.316Z,15.70
2022-11-02T17:28:02.005Z,15.70
2022-11-02T17:30:35.434Z,15.70
2022-11-02T17:33:26.013Z,15.70
2022-11-02T17:35:55.519Z,15.70
2022-11-02T17:38:27.320Z,15.70
2022-11-02T17:40:55.339Z,15.70
2022-11-02T17:43:23.829Z,15.80
2022-11-02T17:45:58.677Z,15.80
2022-11-02T17:48:29.028Z,15.80
2022-11-02T17:50:57.337Z,15.80
2022-11-02T17:53:24.678Z,15.80
2022-11-02T17:55:52.007Z,15.70
2022-11-02T17:58:19.234Z,15.70
2022-11-02T18:00:46.738Z,15.70
2022-11-02T18:03:19.051Z,15.70
2022-11-02T18:05:50.078Z,15.80
2022-11-02T18:08:19.463Z,15.70
2022-11-02T18:10:48.280Z,15.70
2022-11-02T18:13:18.948Z,15.80
2022-11-02T18:15:46.826Z,15.70
2022-11-02T18:18:14.218Z,15.80
2022-11-02T18:20:42.235Z,15.70
2022-11-02T18:23:17.066Z,15.70
2022-11-02T18:25:44.425Z,15.70
2022-11-02T18:28:11.706Z,15.70
2022-11-02T18:30:44.165Z,15.70
2022-11-02T18:33:13.707Z,15.70
2022-11-02T18:35:42.477Z,15.70
2022-11-02T18:38:10.007Z,15.70
2022-11-02T18:40:37.345Z,15.70
2022-11-02T18:43:04.932Z,15.80
2022-11-02T18:45:32.570Z,15.90
2022-11-02T18:47:59.838Z,16.00
2022-11-02T18:50:27.067Z,16.00
2022-11-02T18:52:54.335Z,16.10
2022-11-02T18:55:21.607Z,16.10
2022-11-02T18:57:50.796Z,16.20
2022-11-02T19:00:18.407Z,16.30
2022-11-02T19:02:45.726Z,16.30
2022-11-02T19:05:31.611Z,16.30
2022-11-02T19:08:20.744Z,16.50
2022-11-02T19:10:48.319Z,16.50
2022-11-02T19:13:16.022Z,16.70
2022-11-02T19:15:43.406Z,16.70
2022-11-02T19:18:12.223Z,16.70
2022-11-02T19:20:39.438Z,16.70
2022-11-02T19:23:08.351Z,16.80
2022-11-02T19:25:35.737Z,16.40
2022-11-02T19:28:04.540Z,15.90
2022-11-02T19:30:32.217Z,15.80
2022-11-02T19:32:59.534Z,15.80
2022-11-02T19:35:26.758Z,15.80
2022-11-02T19:37:58.265Z,15.70
2022-11-02T19:40:25.537Z,15.70
2022-11-02T19:42:52.836Z,15.70
2022-11-02T19:45:20.080Z,15.80
2022-11-02T19:47:47.731Z,15.70
2022-11-02T19:50:14.941Z,15.70
2022-11-02T19:52:42.157Z,15.70
2022-11-02T19:55:09.643Z,15.70
2022-11-02T19:57:36.948Z,15.70
2022-11-02T20:00:04.463Z,15.70
2022-11-02T20:02:36.347Z,15.60
2022-11-02T20:05:03.771Z,15.70
2022-11-02T20:07:31.012Z,15.70
2022-11-02T20:09:59.712Z,15.70
2022-11-02T20:12:27.191Z,15.60
2022-11-02T20:14:54.494Z,15.60
2022-11-02T20:17:52.001Z,15.60
2022-11-02T20:20:09.263Z,15.60
2022-11-02T20:22:38.467Z,15.60
2022-11-02T20:25:07.100Z,15.70
2022-11-02T20:27:37.075Z,15.70
2022-11-02T20:30:04.965Z,15.70
2022-11-02T20:32:32.276Z,15.70
2022-11-02T20:34:59.524Z,15.70
2022-11-02T20:37:27.421Z,15.70
2022-11-02T20:39:54.640Z,15.70
2022-11-02T20:42:22.042Z,15.70
2022-11-02T20:44:50.038Z,15.80
2022-11-02T20:47:17.317Z,15.70
2022-11-02T20:49:50.347Z,15.70
2022-11-02T20:52:18.771Z,15.60
2022-11-02T20:54:45.982Z,15.60
2022-11-02T20:57:13.329Z,15.60
2022-11-02T20:59:40.548Z,15.60
2022-11-02T21:02:10.993Z,15.60
2022-11-02T21:04:38.362Z,15.60
2022-11-02T21:07:05.743Z,15.60
2022-11-02T21:09:33.026Z,15.50
2022-11-02T21:12:19.104Z,15.50
2022-11-02T21:14:46.521Z,15.50
2022-11-02T21:17:13.854Z,15.60
2022-11-02T21:19:41.088Z,15.50
2022-11-02T21:22:08.299Z,15.50
2022-11-02T21:24:38.438Z,15.50
2022-11-02T21:27:06.813Z,15.50
2022-11-02T21:29:34.082Z,15.60
2022-11-02T21:32:01.450Z,15.60
2022-11-02T21:34:28.708Z,15.50
2022-11-02T21:36:55.975Z,15.50
2022-11-02T21:39:23.240Z,15.50
2022-11-02T21:41:50.504Z,15.50
2022-11-02T21:44:17.692Z,15.40
2022-11-02T21:46:45.015Z,15.40
2022-11-02T21:49:13.225Z,15.40
2022-11-02T21:51:40.912Z,15.40
2022-11-02T21:54:08.863Z,15.40
2022-11-02T21:56:36.858Z,15.40
2022-11-02T21:59:09.108Z,15.40
2022-11-02T22:01:46.725Z,15.40
2022-11-02T22:04:28.136Z,15.40
2022-11-02T22:06:56.310Z,15.40
2022-11-02T22:09:23.672Z,15.40
2022-11-02T22:12:10.389Z,15.40
2022-11-02T22:14:38.894Z,15.40
2022-11-02T22:17:16.679Z,15.40
2022-11-02T22:19:50.686Z,15.40
2022-11-02T22:22:18.805Z,15.40
2022-11-02T22:24:46.736Z,15.40
2022-11-02T22:27:14.024Z,15.40
2022-11-02T22:29:41.300Z,15.40
2022-11-02T22:32:08.550Z,15.40
2022-11-02T22:34:35.760Z,15.30
2022-11-02T22:37:21.964Z,15.30
2022-11-02T22:39:49.270Z,15.30
2022-11-02T22:42:16.484Z,15.30
2022-11-02T22:44:43.783Z,15.30
2022-11-02T22:47:11.058Z,15.20
2022-11-02T22:49:38.440Z,15.20
2022-11-02T22:52:05.702Z,15.20
2022-11-02T22:54:33.397Z,15.20
2022-11-02T22:57:00.785Z,15.10
2022-11-02T22:59:28.193Z,15.10
2022-11-02T23:01:55.686Z,15.10
2022-11-02T23:04:23.102Z,15.10
2022-11-02T23:06:50.405Z,15.00
2022-11-02T23:09:17.666Z,15.00
2022-11-02T23:11:44.908Z,15.00
2022-11-02T23:14:14.534Z,15.00
2022-11-02T23:16:44.059Z,15.00
2022-11-02T23:19:23.515Z,15.10
2022-11-02T23:22:15.902Z,15.10
2022-11-02T23:25:06.350Z,15.20
2022-11-02T23:27:55.408Z,15.20
2022-11-02T23:30:42.216Z,15.20
2022-11-02T23:33:09.679Z,15.20
2022-11-02T23:35:55.659Z,15.30
2022-11-02T23:38:23.011Z,15.30
2022-11-02T23:40:55.087Z,15.30
2022-11-02T23:43:22.292Z,15.30
2022-11-02T23:45:49.474Z,15.30
2022-11-02T23:51:07.781Z,15.40
2022-11-02T23:53:54.406Z,15.40
2022-11-02T23:56:40.132Z,15.40
2022-11-02T23:59:07.387Z,15.30
